sensor_id;sensor_type;location;lat;lon;timestamp;P1;durP1;ratioP1;P2;durP2;ratioP2
10517;SDS011;5307;42.548;22.968;2023-09-19T00:00:21;7.38;;;6.22;;
10517;SDS011;5307;42.548;22.968;2023-09-19T00:02:53;8.48;;;6.13;;
10517;SDS011;5307;42.548;22.968;2023-09-19T00:05:24;8.18;;;6.45;;
10517;SDS011;5307;42.548;22.968;2023-09-19T00:07:53;7.63;;;6.53;;
10517;SDS011;5307;42.548;22.968;2023-09-19T00:10:23;9.57;;;6.95;;
10517;SDS011;5307;42.548;22.968;2023-09-19T00:12:54;14.32;;;7.18;;
10517;SDS011;5307;42.548;22.968;2023-09-19T00:15:21;11.18;;;7.32;;
10517;SDS011;5307;42.548;22.968;2023-09-19T00:17:48;7.13;;;6.43;;
10517;SDS011;5307;42.548;22.968;2023-09-19T00:20:17;9.43;;;6.53;;
10517;SDS011;5307;42.548;22.968;2023-09-19T00:22:46;9.77;;;6.53;;
10517;SDS011;5307;42.548;22.968;2023-09-19T00:25:14;9.15;;;6.47;;
10517;SDS011;5307;42.548;22.968;2023-09-19T00:27:41;8.52;;;5.97;;
10517;SDS011;5307;42.548;22.968;2023-09-19T00:30:12;13.40;;;6.13;;
10517;SDS011;5307;42.548;22.968;2023-09-19T00:32:42;10.63;;;6.40;;
10517;SDS011;5307;42.548;22.968;2023-09-19T00:35:09;7.72;;;5.80;;
10517;SDS011;5307;42.548;22.968;2023-09-19T00:37:36;7.90;;;5.63;;
10517;SDS011;5307;42.548;22.968;2023-09-19T00:40:05;9.43;;;5.70;;
10517;SDS011;5307;42.548;22.968;2023-09-19T00:42:37;6.88;;;5.60;;
10517;SDS011;5307;42.548;22.968;2023-09-19T00:45:05;8.02;;;5.97;;
10517;SDS011;5307;42.548;22.968;2023-09-19T00:47:35;7.30;;;5.70;;
10517;SDS011;5307;42.548;22.968;2023-09-19T00:50:03;8.32;;;5.95;;
10517;SDS011;5307;42.548;22.968;2023-09-19T00:52:33;9.70;;;6.20;;
10517;SDS011;5307;42.548;22.968;2023-09-19T00:55:01;8.68;;;6.63;;
10517;SDS011;5307;42.548;22.968;2023-09-19T00:57:29;10.30;;;5.95;;
10517;SDS011;5307;42.548;22.968;2023-09-19T00:59:58;8.93;;;6.28;;
10517;SDS011;5307;42.548;22.968;2023-09-19T01:02:30;13.50;;;6.75;;
10517;SDS011;5307;42.548;22.968;2023-09-19T01:04:59;10.40;;;6.50;;
10517;SDS011;5307;42.548;22.968;2023-09-19T01:07:26;7.07;;;6.30;;
10517;SDS011;5307;42.548;22.968;2023-09-19T01:09:55;10.25;;;7.07;;
10517;SDS011;5307;42.548;22.968;2023-09-19T01:12:26;11.13;;;6.93;;
10517;SDS011;5307;42.548;22.968;2023-09-19T01:15:01;9.25;;;6.60;;
10517;SDS011;5307;42.548;22.968;2023-09-19T01:17:38;8.73;;;6.20;;
10517;SDS011;5307;42.548;22.968;2023-09-19T01:20:19;9.80;;;7.10;;
10517;SDS011;5307;42.548;22.968;2023-09-19T01:23:02;12.52;;;6.50;;
10517;SDS011;5307;42.548;22.968;2023-09-19T01:25:50;10.90;;;6.32;;
10517;SDS011;5307;42.548;22.968;2023-09-19T01:28:34;12.00;;;6.32;;
10517;SDS011;5307;42.548;22.968;2023-09-19T01:31:10;7.97;;;6.80;;
10517;SDS011;5307;42.548;22.968;2023-09-19T01:33:54;13.85;;;7.03;;
10517;SDS011;5307;42.548;22.968;2023-09-19T01:36:24;12.77;;;6.40;;
10517;SDS011;5307;42.548;22.968;2023-09-19T01:38:55;7.97;;;6.97;;
10517;SDS011;5307;42.548;22.968;2023-09-19T01:41:30;8.95;;;6.53;;
10517;SDS011;5307;42.548;22.968;2023-09-19T01:44:05;9.02;;;6.63;;
10517;SDS011;5307;42.548;22.968;2023-09-19T01:46:38;7.90;;;6.88;;
10517;SDS011;5307;42.548;22.968;2023-09-19T01:49:11;10.57;;;7.18;;
10517;SDS011;5307;42.548;22.968;2023-09-19T01:51:51;8.63;;;7.10;;
10517;SDS011;5307;42.548;22.968;2023-09-19T01:54:26;10.48;;;7.13;;
10517;SDS011;5307;42.548;22.968;2023-09-19T01:56:57;11.00;;;8.50;;
10517;SDS011;5307;42.548;22.968;2023-09-19T01:59:32;8.27;;;7.25;;
10517;SDS011;5307;42.548;22.968;2023-09-19T02:02:07;14.02;;;8.77;;
10517;SDS011;5307;42.548;22.968;2023-09-19T02:04:35;16.80;;;8.88;;
10517;SDS011;5307;42.548;22.968;2023-09-19T02:07:02;12.23;;;8.98;;
10517;SDS011;5307;42.548;22.968;2023-09-19T02:09:31;15.93;;;10.30;;
10517;SDS011;5307;42.548;22.968;2023-09-19T02:12:00;12.45;;;10.15;;
10517;SDS011;5307;42.548;22.968;2023-09-19T02:14:27;14.35;;;9.45;;
10517;SDS011;5307;42.548;22.968;2023-09-19T02:16:54;13.70;;;9.63;;
10517;SDS011;5307;42.548;22.968;2023-09-19T02:19:23;12.45;;;9.13;;
10517;SDS011;5307;42.548;22.968;2023-09-19T02:21:50;12.05;;;9.10;;
10517;SDS011;5307;42.548;22.968;2023-09-19T02:24:17;15.10;;;9.00;;
10517;SDS011;5307;42.548;22.968;2023-09-19T02:26:44;12.57;;;8.43;;
10517;SDS011;5307;42.548;22.968;2023-09-19T02:29:11;11.60;;;7.80;;
10517;SDS011;5307;42.548;22.968;2023-09-19T02:31:39;12.23;;;8.45;;
10517;SDS011;5307;42.548;22.968;2023-09-19T02:34:06;15.30;;;9.13;;
10517;SDS011;5307;42.548;22.968;2023-09-19T02:36:35;10.82;;;7.68;;
10517;SDS011;5307;42.548;22.968;2023-09-19T02:39:02;13.80;;;7.78;;
10517;SDS011;5307;42.548;22.968;2023-09-19T02:41:30;11.70;;;7.93;;
10517;SDS011;5307;42.548;22.968;2023-09-19T02:43:58;12.20;;;8.18;;
10517;SDS011;5307;42.548;22.968;2023-09-19T02:46:26;11.85;;;9.43;;
10517;SDS011;5307;42.548;22.968;2023-09-19T02:51:31;11.63;;;8.90;;
10517;SDS011;5307;42.548;22.968;2023-09-19T02:54:00;17.70;;;10.18;;
10517;SDS011;5307;42.548;22.968;2023-09-19T02:56:29;12.90;;;10.77;;
10517;SDS011;5307;42.548;22.968;2023-09-19T02:58:57;13.07;;;9.20;;
10517;SDS011;5307;42.548;22.968;2023-09-19T03:01:25;15.18;;;9.75;;
10517;SDS011;5307;42.548;22.968;2023-09-19T03:03:53;13.65;;;9.13;;
10517;SDS011;5307;42.548;22.968;2023-09-19T03:06:20;16.45;;;9.38;;
10517;SDS011;5307;42.548;22.968;2023-09-19T03:08:47;11.65;;;9.38;;
10517;SDS011;5307;42.548;22.968;2023-09-19T03:11:18;12.00;;;9.15;;
10517;SDS011;5307;42.548;22.968;2023-09-19T03:13:50;13.38;;;10.18;;
10517;SDS011;5307;42.548;22.968;2023-09-19T03:16:17;14.63;;;9.57;;
10517;SDS011;5307;42.548;22.968;2023-09-19T03:18:46;14.77;;;8.82;;
10517;SDS011;5307;42.548;22.968;2023-09-19T03:21:14;13.23;;;9.48;;
10517;SDS011;5307;42.548;22.968;2023-09-19T03:23:40;12.63;;;10.10;;
10517;SDS011;5307;42.548;22.968;2023-09-19T03:26:10;15.70;;;11.25;;
10517;SDS011;5307;42.548;22.968;2023-09-19T03:28:39;14.90;;;10.20;;
10517;SDS011;5307;42.548;22.968;2023-09-19T03:31:06;12.98;;;9.63;;
10517;SDS011;5307;42.548;22.968;2023-09-19T03:33:33;16.58;;;9.63;;
10517;SDS011;5307;42.548;22.968;2023-09-19T03:36:00;11.77;;;8.50;;
10517;SDS011;5307;42.548;22.968;2023-09-19T03:38:30;10.50;;;8.88;;
10517;SDS011;5307;42.548;22.968;2023-09-19T03:40:57;13.77;;;9.63;;
10517;SDS011;5307;42.548;22.968;2023-09-19T03:43:24;13.43;;;9.75;;
10517;SDS011;5307;42.548;22.968;2023-09-19T03:45:52;11.48;;;9.55;;
10517;SDS011;5307;42.548;22.968;2023-09-19T03:48:20;17.48;;;9.95;;
10517;SDS011;5307;42.548;22.968;2023-09-19T03:50:47;14.13;;;9.60;;
10517;SDS011;5307;42.548;22.968;2023-09-19T03:53:13;17.63;;;9.32;;
10517;SDS011;5307;42.548;22.968;2023-09-19T03:55:40;16.20;;;10.20;;
10517;SDS011;5307;42.548;22.968;2023-09-19T03:58:08;12.45;;;9.45;;
10517;SDS011;5307;42.548;22.968;2023-09-19T04:00:35;17.42;;;9.80;;
10517;SDS011;5307;42.548;22.968;2023-09-19T04:03:03;17.10;;;8.73;;
10517;SDS011;5307;42.548;22.968;2023-09-19T04:05:31;12.00;;;8.65;;
10517;SDS011;5307;42.548;22.968;2023-09-19T04:07:58;14.30;;;9.05;;
10517;SDS011;5307;42.548;22.968;2023-09-19T04:10:25;16.70;;;8.82;;
10517;SDS011;5307;42.548;22.968;2023-09-19T04:12:53;10.68;;;9.20;;
10517;SDS011;5307;42.548;22.968;2023-09-19T04:15:21;13.35;;;9.00;;
10517;SDS011;5307;42.548;22.968;2023-09-19T04:17:48;16.40;;;11.23;;
10517;SDS011;5307;42.548;22.968;2023-09-19T04:20:17;11.93;;;10.43;;
10517;SDS011;5307;42.548;22.968;2023-09-19T04:22:44;19.67;;;11.45;;
10517;SDS011;5307;42.548;22.968;2023-09-19T04:25:11;19.48;;;11.52;;
10517;SDS011;5307;42.548;22.968;2023-09-19T04:27:38;16.25;;;10.65;;
10517;SDS011;5307;42.548;22.968;2023-09-19T04:30:07;15.82;;;10.98;;
10517;SDS011;5307;42.548;22.968;2023-09-19T04:32:37;19.08;;;11.55;;
10517;SDS011;5307;42.548;22.968;2023-09-19T04:35:05;13.65;;;11.07;;
10517;SDS011;5307;42.548;22.968;2023-09-19T04:37:36;16.45;;;11.10;;
10517;SDS011;5307;42.548;22.968;2023-09-19T04:40:05;16.75;;;11.35;;
10517;SDS011;5307;42.548;22.968;2023-09-19T04:42:37;18.15;;;11.02;;
10517;SDS011;5307;42.548;22.968;2023-09-19T04:45:05;14.40;;;10.75;;
10517;SDS011;5307;42.548;22.968;2023-09-19T04:47:32;16.83;;;10.48;;
10517;SDS011;5307;42.548;22.968;2023-09-19T04:49:59;17.15;;;11.48;;
10517;SDS011;5307;42.548;22.968;2023-09-19T04:52:25;19.48;;;11.48;;
10517;SDS011;5307;42.548;22.968;2023-09-19T04:54:54;15.82;;;10.23;;
10517;SDS011;5307;42.548;22.968;2023-09-19T04:57:20;15.73;;;11.50;;
10517;SDS011;5307;42.548;22.968;2023-09-19T04:59:48;16.08;;;11.13;;
10517;SDS011;5307;42.548;22.968;2023-09-19T05:02:15;13.80;;;9.77;;
10517;SDS011;5307;42.548;22.968;2023-09-19T05:04:42;12.38;;;10.68;;
10517;SDS011;5307;42.548;22.968;2023-09-19T05:07:09;12.15;;;10.07;;
10517;SDS011;5307;42.548;22.968;2023-09-19T05:09:36;14.77;;;10.90;;
10517;SDS011;5307;42.548;22.968;2023-09-19T05:12:05;17.52;;;10.65;;
10517;SDS011;5307;42.548;22.968;2023-09-19T05:14:32;15.40;;;10.32;;
10517;SDS011;5307;42.548;22.968;2023-09-19T05:16:59;15.60;;;10.95;;
10517;SDS011;5307;42.548;22.968;2023-09-19T05:19:25;14.98;;;11.25;;
10517;SDS011;5307;42.548;22.968;2023-09-19T05:21:52;15.05;;;10.57;;
10517;SDS011;5307;42.548;22.968;2023-09-19T05:24:20;16.15;;;11.55;;
10517;SDS011;5307;42.548;22.968;2023-09-19T05:26:48;15.13;;;11.38;;
10517;SDS011;5307;42.548;22.968;2023-09-19T05:29:16;16.67;;;11.35;;
10517;SDS011;5307;42.548;22.968;2023-09-19T05:31:43;14.90;;;11.15;;
10517;SDS011;5307;42.548;22.968;2023-09-19T05:34:10;13.35;;;10.57;;
10517;SDS011;5307;42.548;22.968;2023-09-19T05:36:37;20.45;;;12.38;;
10517;SDS011;5307;42.548;22.968;2023-09-19T05:39:04;16.17;;;12.35;;
10517;SDS011;5307;42.548;22.968;2023-09-19T05:41:34;22.73;;;12.85;;
10517;SDS011;5307;42.548;22.968;2023-09-19T05:44:01;20.23;;;12.25;;
10517;SDS011;5307;42.548;22.968;2023-09-19T05:46:30;18.58;;;12.57;;
10517;SDS011;5307;42.548;22.968;2023-09-19T05:48:56;21.13;;;11.85;;
10517;SDS011;5307;42.548;22.968;2023-09-19T05:51:23;15.40;;;11.27;;
10517;SDS011;5307;42.548;22.968;2023-09-19T05:53:54;17.15;;;10.85;;
10517;SDS011;5307;42.548;22.968;2023-09-19T05:56:21;15.23;;;12.65;;
10517;SDS011;5307;42.548;22.968;2023-09-19T05:58:47;14.98;;;10.70;;
10517;SDS011;5307;42.548;22.968;2023-09-19T06:01:17;13.50;;;10.60;;
10517;SDS011;5307;42.548;22.968;2023-09-19T06:03:45;16.48;;;11.32;;
10517;SDS011;5307;42.548;22.968;2023-09-19T06:06:12;12.13;;;10.65;;
10517;SDS011;5307;42.548;22.968;2023-09-19T06:08:38;15.75;;;10.95;;
10517;SDS011;5307;42.548;22.968;2023-09-19T06:11:05;13.07;;;10.48;;
10517;SDS011;5307;42.548;22.968;2023-09-19T06:13:34;18.38;;;11.02;;
10517;SDS011;5307;42.548;22.968;2023-09-19T06:16:01;20.10;;;11.98;;
10517;SDS011;5307;42.548;22.968;2023-09-19T06:18:30;19.13;;;11.70;;
10517;SDS011;5307;42.548;22.968;2023-09-19T06:21:00;20.48;;;11.18;;
10517;SDS011;5307;42.548;22.968;2023-09-19T06:23:32;14.20;;;10.30;;
10517;SDS011;5307;42.548;22.968;2023-09-19T06:25:59;14.20;;;10.80;;
10517;SDS011;5307;42.548;22.968;2023-09-19T06:28:26;15.23;;;11.23;;
10517;SDS011;5307;42.548;22.968;2023-09-19T06:30:53;18.45;;;10.82;;
10517;SDS011;5307;42.548;22.968;2023-09-19T06:33:20;18.58;;;11.07;;
10517;SDS011;5307;42.548;22.968;2023-09-19T06:35:47;13.32;;;10.35;;
10517;SDS011;5307;42.548;22.968;2023-09-19T06:38:17;12.98;;;10.77;;
10517;SDS011;5307;42.548;22.968;2023-09-19T06:40:44;17.65;;;11.05;;
10517;SDS011;5307;42.548;22.968;2023-09-19T06:43:11;14.65;;;10.75;;
10517;SDS011;5307;42.548;22.968;2023-09-19T06:45:39;20.58;;;11.43;;
10517;SDS011;5307;42.548;22.968;2023-09-19T06:48:08;15.57;;;11.20;;
10517;SDS011;5307;42.548;22.968;2023-09-19T06:50:35;16.95;;;10.88;;
10517;SDS011;5307;42.548;22.968;2023-09-19T06:53:02;17.45;;;10.77;;
10517;SDS011;5307;42.548;22.968;2023-09-19T06:55:32;15.35;;;10.65;;
10517;SDS011;5307;42.548;22.968;2023-09-19T06:57:59;16.05;;;11.18;;
10517;SDS011;5307;42.548;22.968;2023-09-19T07:00:26;16.40;;;10.77;;
10517;SDS011;5307;42.548;22.968;2023-09-19T07:02:56;16.92;;;10.73;;
10517;SDS011;5307;42.548;22.968;2023-09-19T07:05:26;18.88;;;11.20;;
10517;SDS011;5307;42.548;22.968;2023-09-19T07:07:54;15.10;;;10.45;;
10517;SDS011;5307;42.548;22.968;2023-09-19T07:13:32;16.13;;;10.73;;
10517;SDS011;5307;42.548;22.968;2023-09-19T07:15:59;15.27;;;11.50;;
10517;SDS011;5307;42.548;22.968;2023-09-19T07:18:26;20.60;;;11.50;;
10517;SDS011;5307;42.548;22.968;2023-09-19T07:20:56;16.00;;;11.25;;
10517;SDS011;5307;42.548;22.968;2023-09-19T07:23:26;18.35;;;10.48;;
10517;SDS011;5307;42.548;22.968;2023-09-19T07:25:56;17.70;;;9.52;;
10517;SDS011;5307;42.548;22.968;2023-09-19T07:28:24;15.60;;;9.60;;
10517;SDS011;5307;42.548;22.968;2023-09-19T07:30:52;12.77;;;7.90;;
10517;SDS011;5307;42.548;22.968;2023-09-19T07:33:19;10.98;;;7.95;;
10517;SDS011;5307;42.548;22.968;2023-09-19T07:35:46;9.13;;;8.10;;
10517;SDS011;5307;42.548;22.968;2023-09-19T07:38:13;10.80;;;7.90;;
10517;SDS011;5307;42.548;22.968;2023-09-19T07:40:40;15.93;;;8.07;;
10517;SDS011;5307;42.548;22.968;2023-09-19T07:43:06;13.35;;;8.88;;
10517;SDS011;5307;42.548;22.968;2023-09-19T07:45:33;16.55;;;8.48;;
10517;SDS011;5307;42.548;22.968;2023-09-19T07:48:03;14.05;;;8.23;;
10517;SDS011;5307;42.548;22.968;2023-09-19T07:50:32;12.43;;;8.85;;
10517;SDS011;5307;42.548;22.968;2023-09-19T07:53:01;19.05;;;8.02;;
10517;SDS011;5307;42.548;22.968;2023-09-19T07:55:30;15.77;;;8.23;;
10517;SDS011;5307;42.548;22.968;2023-09-19T07:57:58;15.25;;;8.57;;
10517;SDS011;5307;42.548;22.968;2023-09-19T08:00:25;15.30;;;9.23;;
10517;SDS011;5307;42.548;22.968;2023-09-19T08:02:52;16.23;;;8.57;;
10517;SDS011;5307;42.548;22.968;2023-09-19T08:05:20;14.18;;;9.40;;
10517;SDS011;5307;42.548;22.968;2023-09-19T08:07:47;18.17;;;9.73;;
10517;SDS011;5307;42.548;22.968;2023-09-19T08:10:15;14.55;;;9.35;;
10517;SDS011;5307;42.548;22.968;2023-09-19T08:12:44;17.35;;;9.80;;
10517;SDS011;5307;42.548;22.968;2023-09-19T08:15:12;15.60;;;10.00;;
10517;SDS011;5307;42.548;22.968;2023-09-19T08:17:40;16.38;;;10.40;;
10517;SDS011;5307;42.548;22.968;2023-09-19T08:20:07;14.80;;;9.63;;
10517;SDS011;5307;42.548;22.968;2023-09-19T08:22:44;11.65;;;8.60;;
10517;SDS011;5307;42.548;22.968;2023-09-19T08:25:14;16.00;;;9.35;;
10517;SDS011;5307;42.548;22.968;2023-09-19T08:27:43;15.13;;;9.00;;
10517;SDS011;5307;42.548;22.968;2023-09-19T08:30:13;13.48;;;9.85;;
10517;SDS011;5307;42.548;22.968;2023-09-19T08:32:39;12.70;;;9.43;;
10517;SDS011;5307;42.548;22.968;2023-09-19T08:35:07;10.57;;;8.25;;
10517;SDS011;5307;42.548;22.968;2023-09-19T08:37:35;12.38;;;9.10;;
10517;SDS011;5307;42.548;22.968;2023-09-19T08:40:04;13.60;;;9.98;;
10517;SDS011;5307;42.548;22.968;2023-09-19T08:42:46;11.07;;;9.27;;
10517;SDS011;5307;42.548;22.968;2023-09-19T08:45:15;12.90;;;8.57;;
10517;SDS011;5307;42.548;22.968;2023-09-19T08:47:44;14.70;;;9.05;;
10517;SDS011;5307;42.548;22.968;2023-09-19T08:50:14;9.55;;;8.40;;
10517;SDS011;5307;42.548;22.968;2023-09-19T08:52:46;15.23;;;8.40;;
10517;SDS011;5307;42.548;22.968;2023-09-19T08:55:16;13.32;;;8.00;;
10517;SDS011;5307;42.548;22.968;2023-09-19T08:57:48;12.43;;;8.38;;
10517;SDS011;5307;42.548;22.968;2023-09-19T09:00:17;9.98;;;8.38;;
10517;SDS011;5307;42.548;22.968;2023-09-19T09:02:46;17.40;;;8.65;;
10517;SDS011;5307;42.548;22.968;2023-09-19T09:05:14;12.82;;;9.15;;
10517;SDS011;5307;42.548;22.968;2023-09-19T09:07:48;13.40;;;8.63;;
10517;SDS011;5307;42.548;22.968;2023-09-19T09:10:18;16.75;;;8.73;;
10517;SDS011;5307;42.548;22.968;2023-09-19T09:12:47;15.10;;;8.00;;
10517;SDS011;5307;42.548;22.968;2023-09-19T09:15:15;13.82;;;8.95;;
10517;SDS011;5307;42.548;22.968;2023-09-19T09:17:46;10.60;;;8.73;;
10517;SDS011;5307;42.548;22.968;2023-09-19T09:20:14;11.65;;;8.13;;
10517;SDS011;5307;42.548;22.968;2023-09-19T09:22:44;12.75;;;8.52;;
10517;SDS011;5307;42.548;22.968;2023-09-19T09:25:18;9.63;;;7.88;;
10517;SDS011;5307;42.548;22.968;2023-09-19T09:27:55;9.60;;;7.75;;
10517;SDS011;5307;42.548;22.968;2023-09-19T09:30:35;9.77;;;8.10;;
10517;SDS011;5307;42.548;22.968;2023-09-19T09:33:09;9.55;;;7.57;;
10517;SDS011;5307;42.548;22.968;2023-09-19T09:35:37;9.90;;;7.32;;
10517;SDS011;5307;42.548;22.968;2023-09-19T09:38:13;8.43;;;7.03;;
10517;SDS011;5307;42.548;22.968;2023-09-19T09:40:48;9.50;;;7.35;;
10517;SDS011;5307;42.548;22.968;2023-09-19T09:43:30;8.23;;;6.72;;
10517;SDS011;5307;42.548;22.968;2023-09-19T09:46:08;8.32;;;7.22;;
10517;SDS011;5307;42.548;22.968;2023-09-19T09:48:58;8.85;;;7.25;;
10517;SDS011;5307;42.548;22.968;2023-09-19T09:51:40;14.60;;;8.20;;
10517;SDS011;5307;42.548;22.968;2023-09-19T09:54:10;7.93;;;7.13;;
10517;SDS011;5307;42.548;22.968;2023-09-19T10:02:21;8.63;;;7.53;;
10517;SDS011;5307;42.548;22.968;2023-09-19T10:04:54;8.27;;;7.47;;
10517;SDS011;5307;42.548;22.968;2023-09-19T10:07:39;9.65;;;6.85;;
10517;SDS011;5307;42.548;22.968;2023-09-19T10:10:07;9.95;;;6.97;;
10517;SDS011;5307;42.548;22.968;2023-09-19T10:12:46;10.90;;;7.15;;
10517;SDS011;5307;42.548;22.968;2023-09-19T10:15:14;12.20;;;7.88;;
10517;SDS011;5307;42.548;22.968;2023-09-19T10:17:43;11.85;;;7.70;;
10517;SDS011;5307;42.548;22.968;2023-09-19T10:20:14;8.05;;;6.80;;
10517;SDS011;5307;42.548;22.968;2023-09-19T10:22:59;10.80;;;8.30;;
10517;SDS011;5307;42.548;22.968;2023-09-19T10:25:27;8.18;;;7.13;;
10517;SDS011;5307;42.548;22.968;2023-09-19T10:27:58;8.80;;;7.80;;
10517;SDS011;5307;42.548;22.968;2023-09-19T10:30:28;11.45;;;8.00;;
10517;SDS011;5307;42.548;22.968;2023-09-19T10:32:59;8.68;;;7.75;;
10517;SDS011;5307;42.548;22.968;2023-09-19T10:35:27;11.18;;;7.55;;
10517;SDS011;5307;42.548;22.968;2023-09-19T10:37:55;9.93;;;7.60;;
10517;SDS011;5307;42.548;22.968;2023-09-19T10:40:26;8.93;;;7.85;;
10517;SDS011;5307;42.548;22.968;2023-09-19T10:43:00;7.72;;;6.82;;
10517;SDS011;5307;42.548;22.968;2023-09-19T10:45:30;11.73;;;8.13;;
10517;SDS011;5307;42.548;22.968;2023-09-19T10:47:57;10.40;;;8.18;;
10517;SDS011;5307;42.548;22.968;2023-09-19T10:50:25;8.35;;;7.50;;
10517;SDS011;5307;42.548;22.968;2023-09-19T10:52:56;11.40;;;8.82;;
10517;SDS011;5307;42.548;22.968;2023-09-19T10:55:30;10.40;;;7.65;;
10517;SDS011;5307;42.548;22.968;2023-09-19T10:58:01;7.97;;;6.90;;
10517;SDS011;5307;42.548;22.968;2023-09-19T11:00:49;10.98;;;7.57;;
10517;SDS011;5307;42.548;22.968;2023-09-19T11:03:18;11.47;;;8.40;;
10517;SDS011;5307;42.548;22.968;2023-09-19T11:06:01;10.38;;;7.72;;
10517;SDS011;5307;42.548;22.968;2023-09-19T11:11:41;9.65;;;8.00;;
10517;SDS011;5307;42.548;22.968;2023-09-19T11:14:17;12.77;;;8.07;;
10517;SDS011;5307;42.548;22.968;2023-09-19T11:20:20;9.32;;;7.57;;
10517;SDS011;5307;42.548;22.968;2023-09-19T11:23:23;9.98;;;8.48;;
10517;SDS011;5307;42.548;22.968;2023-09-19T11:25:52;10.68;;;7.40;;
10517;SDS011;5307;42.548;22.968;2023-09-19T11:28:30;8.25;;;7.45;;
10517;SDS011;5307;42.548;22.968;2023-09-19T11:30:57;10.75;;;7.90;;
10517;SDS011;5307;42.548;22.968;2023-09-19T11:33:25;11.73;;;7.65;;
10517;SDS011;5307;42.548;22.968;2023-09-19T11:36:00;8.55;;;7.45;;
10517;SDS011;5307;42.548;22.968;2023-09-19T11:41:36;9.05;;;7.75;;
10517;SDS011;5307;42.548;22.968;2023-09-19T11:47:04;9.48;;;8.07;;
10517;SDS011;5307;42.548;22.968;2023-09-19T11:49:32;15.10;;;9.02;;
10517;SDS011;5307;42.548;22.968;2023-09-19T11:52:00;9.50;;;7.95;;
10517;SDS011;5307;42.548;22.968;2023-09-19T11:54:30;9.55;;;7.85;;
10517;SDS011;5307;42.548;22.968;2023-09-19T11:56:57;13.23;;;7.97;;
10517;SDS011;5307;42.548;22.968;2023-09-19T11:59:26;10.25;;;8.55;;
10517;SDS011;5307;42.548;22.968;2023-09-19T12:01:55;9.30;;;8.13;;
10517;SDS011;5307;42.548;22.968;2023-09-19T12:04:37;12.00;;;8.30;;
10517;SDS011;5307;42.548;22.968;2023-09-19T12:07:06;11.90;;;8.18;;
10517;SDS011;5307;42.548;22.968;2023-09-19T12:09:38;12.93;;;7.80;;
10517;SDS011;5307;42.548;22.968;2023-09-19T12:12:09;11.68;;;7.63;;
10517;SDS011;5307;42.548;22.968;2023-09-19T12:14:37;10.88;;;8.43;;
10517;SDS011;5307;42.548;22.968;2023-09-19T12:17:07;12.00;;;7.63;;
10517;SDS011;5307;42.548;22.968;2023-09-19T12:19:34;11.30;;;7.97;;
10517;SDS011;5307;42.548;22.968;2023-09-19T12:22:02;11.90;;;8.25;;
10517;SDS011;5307;42.548;22.968;2023-09-19T12:24:30;8.68;;;7.43;;
10517;SDS011;5307;42.548;22.968;2023-09-19T12:27:01;10.80;;;8.13;;
10517;SDS011;5307;42.548;22.968;2023-09-19T12:29:42;9.25;;;7.30;;
10517;SDS011;5307;42.548;22.968;2023-09-19T12:32:10;9.43;;;7.85;;
10517;SDS011;5307;42.548;22.968;2023-09-19T12:34:38;10.73;;;7.72;;
10517;SDS011;5307;42.548;22.968;2023-09-19T12:37:23;9.20;;;7.55;;
10517;SDS011;5307;42.548;22.968;2023-09-19T12:40:02;10.57;;;7.60;;
10517;SDS011;5307;42.548;22.968;2023-09-19T12:42:42;9.48;;;7.65;;
10517;SDS011;5307;42.548;22.968;2023-09-19T12:45:10;11.82;;;9.05;;
10517;SDS011;5307;42.548;22.968;2023-09-19T12:47:39;10.63;;;7.65;;
10517;SDS011;5307;42.548;22.968;2023-09-19T12:50:09;11.75;;;8.00;;
10517;SDS011;5307;42.548;22.968;2023-09-19T12:52:44;8.60;;;7.75;;
10517;SDS011;5307;42.548;22.968;2023-09-19T12:55:22;11.43;;;8.07;;
10517;SDS011;5307;42.548;22.968;2023-09-19T12:58:01;8.50;;;7.43;;
10517;SDS011;5307;42.548;22.968;2023-09-19T13:00:35;9.90;;;7.63;;
10517;SDS011;5307;42.548;22.968;2023-09-19T13:03:12;10.73;;;8.43;;
10517;SDS011;5307;42.548;22.968;2023-09-19T13:05:51;9.15;;;8.00;;
10517;SDS011;5307;42.548;22.968;2023-09-19T13:08:24;10.05;;;7.72;;
10517;SDS011;5307;42.548;22.968;2023-09-19T13:11:01;10.73;;;7.57;;
10517;SDS011;5307;42.548;22.968;2023-09-19T13:13:34;9.95;;;7.75;;
10517;SDS011;5307;42.548;22.968;2023-09-19T13:16:03;11.57;;;7.82;;
10517;SDS011;5307;42.548;22.968;2023-09-19T13:18:41;12.98;;;7.78;;
10517;SDS011;5307;42.548;22.968;2023-09-19T13:21:10;12.23;;;8.07;;
10517;SDS011;5307;42.548;22.968;2023-09-19T13:23:42;10.27;;;7.57;;
10517;SDS011;5307;42.548;22.968;2023-09-19T13:26:09;10.18;;;7.65;;
10517;SDS011;5307;42.548;22.968;2023-09-19T13:28:37;10.50;;;8.23;;
10517;SDS011;5307;42.548;22.968;2023-09-19T13:31:04;12.77;;;7.93;;
10517;SDS011;5307;42.548;22.968;2023-09-19T13:33:31;8.55;;;7.55;;
10517;SDS011;5307;42.548;22.968;2023-09-19T13:35:58;10.27;;;8.10;;
10517;SDS011;5307;42.548;22.968;2023-09-19T13:38:24;12.05;;;7.10;;
10517;SDS011;5307;42.548;22.968;2023-09-19T13:40:53;9.48;;;7.45;;
10517;SDS011;5307;42.548;22.968;2023-09-19T13:43:20;10.20;;;6.97;;
10517;SDS011;5307;42.548;22.968;2023-09-19T13:45:47;9.48;;;6.80;;
10517;SDS011;5307;42.548;22.968;2023-09-19T13:48:15;9.40;;;7.05;;
10517;SDS011;5307;42.548;22.968;2023-09-19T13:50:47;13.00;;;7.72;;
10517;SDS011;5307;42.548;22.968;2023-09-19T13:53:14;8.52;;;6.93;;
10517;SDS011;5307;42.548;22.968;2023-09-19T13:55:42;9.52;;;7.72;;
10517;SDS011;5307;42.548;22.968;2023-09-19T13:58:10;15.25;;;8.20;;
10517;SDS011;5307;42.548;22.968;2023-09-19T14:00:37;10.57;;;7.22;;
10517;SDS011;5307;42.548;22.968;2023-09-19T14:03:04;8.65;;;6.50;;
10517;SDS011;5307;42.548;22.968;2023-09-19T14:05:31;8.05;;;7.20;;
10517;SDS011;5307;42.548;22.968;2023-09-19T14:07:58;9.40;;;7.80;;
10517;SDS011;5307;42.548;22.968;2023-09-19T14:10:26;8.32;;;7.47;;
10517;SDS011;5307;42.548;22.968;2023-09-19T14:12:55;8.98;;;7.25;;
10517;SDS011;5307;42.548;22.968;2023-09-19T14:15:24;12.10;;;8.80;;
10517;SDS011;5307;42.548;22.968;2023-09-19T14:17:55;11.38;;;7.93;;
10517;SDS011;5307;42.548;22.968;2023-09-19T14:20:22;12.95;;;7.95;;
10517;SDS011;5307;42.548;22.968;2023-09-19T14:22:49;13.38;;;7.72;;
10517;SDS011;5307;42.548;22.968;2023-09-19T14:25:16;11.82;;;7.68;;
10517;SDS011;5307;42.548;22.968;2023-09-19T14:27:43;10.95;;;8.05;;
10517;SDS011;5307;42.548;22.968;2023-09-19T14:30:10;17.13;;;8.15;;
10517;SDS011;5307;42.548;22.968;2023-09-19T14:32:38;12.20;;;8.55;;
10517;SDS011;5307;42.548;22.968;2023-09-19T14:35:06;17.95;;;8.98;;
10517;SDS011;5307;42.548;22.968;2023-09-19T14:37:34;9.35;;;8.38;;
10517;SDS011;5307;42.548;22.968;2023-09-19T14:40:04;11.55;;;8.60;;
10517;SDS011;5307;42.548;22.968;2023-09-19T14:42:33;12.48;;;8.07;;
10517;SDS011;5307;42.548;22.968;2023-09-19T14:45:03;11.07;;;7.60;;
10517;SDS011;5307;42.548;22.968;2023-09-19T14:47:32;9.52;;;7.03;;
10517;SDS011;5307;42.548;22.968;2023-09-19T14:50:05;9.00;;;7.15;;
10517;SDS011;5307;42.548;22.968;2023-09-19T14:52:33;11.68;;;7.43;;
10517;SDS011;5307;42.548;22.968;2023-09-19T14:55:01;12.93;;;7.05;;
10517;SDS011;5307;42.548;22.968;2023-09-19T15:04:39;11.38;;;9.27;;
10517;SDS011;5307;42.548;22.968;2023-09-19T15:07:07;18.73;;;12.10;;
10517;SDS011;5307;42.548;22.968;2023-09-19T15:09:34;14.00;;;9.80;;
10517;SDS011;5307;42.548;22.968;2023-09-19T15:12:01;12.85;;;8.57;;
10517;SDS011;5307;42.548;22.968;2023-09-19T15:14:28;12.98;;;9.23;;
10517;SDS011;5307;42.548;22.968;2023-09-19T15:16:55;11.73;;;9.25;;
10517;SDS011;5307;42.548;22.968;2023-09-19T15:19:21;12.15;;;9.68;;
10517;SDS011;5307;42.548;22.968;2023-09-19T15:21:48;13.32;;;9.65;;